KHYA/HYA METAR and TAF weather

Enter ICAO airport designator
Station Type Date Time Source
KHYA METAR 2019/02/18 03:56 UTC NOAA

KHYA 180356Z AUTO 00000KT 10SM OVC070 01/M07 A3003 RMK AO2 SLP169 T00061072


Station Type Date Time Source
KHYA Decoded METAR 2019/02/18 03:56 UTC NOAA

HYANNIS BARNSTABLE BOARDMN, MA, United States (KHYA) 41-40N 070-16W 22M
Feb 17, 2019 - 10:56 PM EST / 2019.02.18 0356 UTC
Wind: Calm:0
Visibility: 10 mile(s):0
Sky conditions: overcast
Temperature: 33.1 F (0.6 C)
Dew Point: 19.0 F (-7.2 C)
Relative Humidity: 55%
Pressure (altimeter): 30.03 in. Hg (1016 hPa)
ob: KHYA 180356Z AUTO 00000KT 10SM OVC070 01/M07 A3003 RMK AO2 SLP169 T00061072
cycle: 4

Station Type Date Time Source
KHYA TAF 2019/02/17 18:42 UTC NOAA

TAF KHYA 171739Z 1718/1818 01005KT P6SM SKC
FM172000 09004KT P6SM FEW200
FM180000 00000KT P6SM BKN120
FM180500 VRB03KT 2SM -SN OVC025
FM180700 VRB03KT 1/2SM SN FG OVC015
FM181200 08008KT 2SM -SN OVC010
FM181300 07008KT 2SM -SNRA OVC010
FM181500 06009KT 2SM -SNRA OVC008


Example: see airport list